Time;durP1;ratioP1;P1;durP2;ratioP2;P2;SDS_P1;SDS_P2;PMS_P1;PMS_P2;Temp;Humidity;BMP_temperature;BMP_pressure;BME280_temperature;BME280_humidity;BME280_pressure;Samples;Min_cycle;Max_cycle;Signal;HPM_P1;HPM_P2
2022/04/17 00:01:02;;;;;;;17.42;11.35;;;;;;;14.43;71.03;100502.94;5052156;28;20017;-77
2022/04/17 00:03:29;;;;;;;24.45;11.20;;;;;;;14.36;71.37;100513.53;5053535;28;20096;-77
2022/04/17 00:05:54;;;;;;;17.65;10.77;;;;;;;14.40;71.40;100512.19;5052768;28;20494;-77
2022/04/17 00:08:21;;;;;;;23.20;12.48;;;;;;;14.35;71.41;100529.91;5052354;28;20112;-78
2022/04/17 00:10:47;;;;;;;15.35;11.07;;;;;;;14.33;71.37;100531.91;5052001;28;20483;-77
2022/04/17 00:13:14;;;;;;;26.02;12.63;;;;;;;14.34;71.22;100522.81;5051987;28;20043;-76
2022/04/17 00:15:41;;;;;;;24.42;12.80;;;;;;;14.29;71.71;100523.22;5052189;28;20025;-78
2022/04/17 00:18:08;;;;;;;16.60;11.18;;;;;;;14.34;71.54;100544.44;5052927;28;20016;-78
2022/04/17 00:20:38;;;;;;;21.48;11.52;;;;;;;14.30;71.26;100549.28;5053024;28;20151;-78
2022/04/17 00:23:05;;;;;;;16.08;11.70;;;;;;;14.30;71.54;100543.00;5052965;28;20103;-78
2022/04/17 00:25:34;;;;;;;20.23;10.80;;;;;;;14.25;71.63;100546.16;5053133;28;20031;-78
2022/04/17 00:27:59;;;;;;;24.08;11.02;;;;;;;14.24;72.03;100543.59;5051743;28;20028;-76
2022/04/17 00:30:24;;;;;;;18.90;11.23;;;;;;;14.21;72.00;100557.44;5051503;28;20059;-77
2022/04/17 00:32:52;;;;;;;19.52;10.18;;;;;;;14.24;71.83;100546.31;5052490;28;20045;-77
2022/04/17 00:35:22;;;;;;;19.90;11.15;;;;;;;14.26;71.67;100545.16;5052807;28;20100;-76
2022/04/17 00:37:49;;;;;;;23.48;10.48;;;;;;;14.28;71.67;100529.63;5051292;28;20024;-76
2022/04/17 00:40:14;;;;;;;23.85;10.02;;;;;;;14.18;72.20;100524.28;5052622;28;20059;-77
2022/04/17 00:42:41;;;;;;;38.45;11.57;;;;;;;14.09;72.45;100524.31;5051705;28;20419;-77
2022/04/17 00:45:07;;;;;;;18.90;10.20;;;;;;;14.22;72.25;100513.16;5052318;28;20100;-77
2022/04/17 00:47:35;;;;;;;26.90;11.20;;;;;;;14.23;71.96;100553.56;5050935;28;20029;-77
2022/04/17 00:50:02;;;;;;;19.55;10.48;;;;;;;14.15;72.39;100567.00;5051113;28;20031;-78
2022/04/17 00:52:29;;;;;;;21.23;10.52;;;;;;;14.19;72.38;100579.22;5053079;28;20021;-78
2022/04/17 00:54:55;;;;;;;14.52;9.75;;;;;;;14.13;72.47;100564.44;5052524;28;20097;-78
2022/04/17 00:57:22;;;;;;;16.77;10.43;;;;;;;14.12;72.68;100570.00;5034910;28;20086;-77
2022/04/17 00:59:51;;;;;;;13.40;9.60;;;;;;;14.19;72.56;100574.66;5052440;28;20025;-78
2022/04/17 01:02:17;;;;;;;14.05;9.75;;;;;;;14.15;72.54;100584.09;5018463;28;20024;-77
2022/04/17 01:04:44;;;;;;;18.92;10.18;;;;;;;14.13;72.68;100586.06;5051863;28;20107;-80
2022/04/17 01:07:10;;;;;;;18.83;9.98;;;;;;;14.11;72.63;100582.66;5051686;28;20037;-77
2022/04/17 01:09:40;;;;;;;19.25;9.90;;;;;;;14.12;72.83;100587.09;5050958;28;20134;-78
2022/04/17 01:12:10;;;;;;;18.55;11.50;;;;;;;14.07;73.04;100583.09;5050598;28;20048;-79
2022/04/17 01:14:37;;;;;;;17.75;10.80;;;;;;;14.17;72.72;100584.78;5051344;28;20402;-76
2022/04/17 01:17:03;;;;;;;16.98;10.90;;;;;;;14.22;72.25;100588.91;5051387;28;20059;-78
2022/04/17 01:19:37;;;;;;;14.35;9.02;;;;;;;14.22;72.41;100567.25;5050258;28;20037;-77
2022/04/17 01:22:08;;;;;;;18.65;9.93;;;;;;;14.17;72.35;100565.00;5049202;28;20032;-77
2022/04/17 01:27:21;;;;;;;17.90;10.45;;;;;;;14.07;73.07;100535.28;5051750;28;20035;-77
2022/04/17 01:29:47;;;;;;;15.90;10.63;;;;;;;14.00;73.07;100553.13;5033803;28;20414;-77
2022/04/17 01:32:15;;;;;;;15.32;10.82;;;;;;;14.00;73.15;100545.00;5051997;28;20049;-78
2022/04/17 01:34:41;;;;;;;22.45;10.27;;;;;;;13.94;73.29;100521.25;5050294;28;20029;-77
2022/04/17 01:37:07;;;;;;;17.80;9.73;;;;;;;13.93;73.43;100511.44;5051101;28;20063;-76
2022/04/17 01:39:34;;;;;;;18.90;10.23;;;;;;;13.91;73.76;100499.91;5033847;28;20033;-77
2022/04/17 01:42:01;;;;;;;15.98;10.93;;;;;;;13.85;73.86;100510.50;5051673;28;20115;-77
2022/04/17 01:44:28;;;;;;;15.20;11.20;;;;;;;13.81;74.30;100496.41;5033769;28;20456;-76
2022/04/17 01:46:54;;;;;;;22.08;11.13;;;;;;;13.73;74.70;100499.00;5051331;28;20025;-76
2022/04/17 01:49:20;;;;;;;37.22;12.40;;;;;;;13.67;74.76;100486.06;5051196;28;20037;-78
2022/04/17 01:51:48;;;;;;;17.42;11.02;;;;;;;13.70;75.34;100485.78;5049630;28;20067;-76
2022/04/17 01:54:15;;;;;;;22.52;11.30;;;;;;;13.63;75.55;100477.44;5049977;28;20024;-78
2022/04/17 01:56:44;;;;;;;26.70;13.00;;;;;;;13.54;76.09;100488.28;5051078;28;20028;-76
2022/04/17 01:59:11;;;;;;;28.30;12.07;;;;;;;13.54;76.13;100502.63;5050204;28;20033;-76
2022/04/17 02:01:38;;;;;;;16.48;11.73;;;;;;;13.51;76.26;100497.53;5051518;28;20013;-77
2022/04/17 02:04:05;;;;;;;22.23;12.88;;;;;;;13.53;76.22;100500.91;5051349;28;20078;-77
2022/04/17 02:06:32;;;;;;;22.80;11.20;;;;;;;13.51;76.78;100492.13;5050237;28;20116;-78
2022/04/17 02:08:59;;;;;;;24.45;11.52;;;;;;;13.53;76.33;100513.56;5051457;28;20091;-78
2022/04/17 02:11:26;;;;;;;22.80;13.25;;;;;;;13.48;76.84;100518.56;5050081;28;20489;-78
2022/04/17 02:13:52;;;;;;;20.73;12.82;;;;;;;13.46;76.66;100539.47;5050862;28;20027;-78
2022/04/17 02:16:19;;;;;;;20.25;13.15;;;;;;;13.49;76.94;100537.31;5051279;28;20513;-76
2022/04/17 02:18:45;;;;;;;19.35;12.18;;;;;;;13.44;76.79;100545.03;5051203;28;20021;-76
2022/04/17 02:21:12;;;;;;;24.95;12.93;;;;;;;13.50;76.82;100536.34;5049869;28;20410;-75
2022/04/17 02:23:38;;;;;;;18.23;12.57;;;;;;;13.52;76.74;100530.78;5051096;28;20045;-75
2022/04/17 02:26:05;;;;;;;18.70;12.45;;;;;;;13.46;76.63;100547.56;5049902;28;20110;-75
2022/04/17 02:28:34;;;;;;;23.17;13.23;;;;;;;13.38;76.98;100539.34;5049481;28;20028;-78
2022/04/17 02:31:01;;;;;;;19.70;12.35;;;;;;;13.46;76.94;100543.03;5033603;28;20061;-75
2022/04/17 02:33:29;;;;;;;22.63;13.15;;;;;;;13.41;76.83;100539.06;5033222;28;20115;-76
2022/04/17 02:35:55;;;;;;;29.90;13.10;;;;;;;13.49;76.73;100560.78;5051143;28;20021;-76
2022/04/17 02:38:22;;;;;;;20.33;13.25;;;;;;;13.42;76.64;100557.81;5050081;28;20075;-76
2022/04/17 02:40:47;;;;;;;21.20;12.38;;;;;;;13.44;76.77;100571.19;5053153;28;20170;-77
2022/04/17 02:43:13;;;;;;;23.30;13.02;;;;;;;13.43;77.35;100566.78;5053287;28;20116;-77
2022/04/17 02:45:38;;;;;;;24.13;12.75;;;;;;;13.43;77.15;100547.84;5053250;28;20021;-77
2022/04/17 02:48:04;;;;;;;31.02;13.05;;;;;;;13.38;76.78;100552.84;5054256;28;20028;-77
2022/04/17 02:50:30;;;;;;;31.42;11.65;;;;;;;13.25;77.48;100555.00;5052521;28;20030;-77
2022/04/17 02:52:56;;;;;;;23.83;11.93;;;;;;;13.26;77.87;100573.78;5053141;28;20509;-77
2022/04/17 02:55:22;;;;;;;24.15;10.30;;;;;;;13.18;77.91;100548.47;5054099;28;20032;-77
2022/04/17 02:57:48;;;;;;;23.35;10.55;;;;;;;13.14;77.53;100557.84;5053821;28;20035;-77
2022/04/17 03:00:14;;;;;;;28.35;10.48;;;;;;;13.17;77.79;100568.38;5052984;28;20029;-76
2022/04/17 03:05:37;;;;;;;22.42;9.98;;;;;;;13.09;78.34;100571.78;5055833;28;20028;-78
2022/04/17 03:08:13;;;;;;;24.23;8.80;;;;;;;13.08;78.56;100572.78;5055085;28;20024;-78
2022/04/17 03:10:43;;;;;;;17.65;8.93;;;;;;;13.07;78.45;100574.59;5054322;28;20429;-76
2022/04/17 03:13:10;;;;;;;23.05;9.90;;;;;;;13.12;77.99;100576.06;5054089;28;20024;-78
2022/04/17 03:15:40;;;;;;;14.35;9.00;;;;;;;13.07;77.95;100582.69;5052763;28;20045;-78
2022/04/17 03:18:06;;;;;;;22.85;9.43;;;;;;;13.01;77.89;100580.56;5036434;28;20568;-78
2022/04/17 03:20:32;;;;;;;16.45;9.32;;;;;;;13.00;78.48;100596.88;5053993;28;20028;-77
2022/04/17 03:22:58;;;;;;;21.35;9.05;;;;;;;12.92;78.44;100581.41;5037018;28;20487;-77
2022/04/17 03:25:23;;;;;;;16.65;9.57;;;;;;;12.82;78.66;100583.25;5052274;28;20032;-77
2022/04/17 03:27:50;;;;;;;14.65;9.52;;;;;;;12.88;78.71;100596.16;5052573;28;20453;-77
2022/04/17 03:30:17;;;;;;;19.85;9.73;;;;;;;12.77;78.84;100598.16;5052207;28;20045;-77
2022/04/17 03:32:44;;;;;;;23.42;8.95;;;;;;;12.81;78.78;100613.09;5052402;28;20049;-77
2022/04/17 03:35:11;;;;;;;15.68;8.15;;;;;;;12.81;79.01;100613.91;5053480;28;20115;-77
2022/04/17 03:37:36;;;;;;;12.10;7.35;;;;;;;12.86;78.24;100624.31;5051786;28;20033;-76
2022/04/17 03:40:03;;;;;;;15.85;6.88;;;;;;;12.84;77.69;100615.50;5053224;28;20047;-76
2022/04/17 03:42:30;;;;;;;12.63;6.28;;;;;;;12.70;77.85;100627.53;5053565;28;20024;-77
2022/04/17 03:44:56;;;;;;;12.30;7.45;;;;;;;12.66;77.50;100631.50;5053854;28;20037;-76
2022/04/17 03:47:22;;;;;;;11.60;6.05;;;;;;;12.62;77.74;100653.50;5053193;28;20450;-76
2022/04/17 03:49:49;;;;;;;14.63;6.90;;;;;;;12.50;77.88;100644.66;5053214;28;20054;-76
2022/04/17 03:52:15;;;;;;;14.00;6.28;;;;;;;12.33;77.97;100639.91;5053317;28;20025;-76
2022/04/17 03:54:40;;;;;;;10.20;6.95;;;;;;;12.30;77.62;100637.47;5052214;28;20051;-76
2022/04/17 03:57:06;;;;;;;12.98;7.60;;;;;;;12.19;77.68;100634.88;5053462;28;20037;-77
2022/04/17 03:59:33;;;;;;;14.95;6.45;;;;;;;12.10;77.45;100636.53;5051979;28;20037;-76
2022/04/17 04:02:03;;;;;;;16.23;7.32;;;;;;;12.07;77.90;100627.88;5052263;28;20021;-78
2022/04/17 04:04:29;;;;;;;18.63;9.73;;;;;;;12.02;78.24;100639.03;5053202;28;20528;-78
2022/04/17 04:06:56;;;;;;;27.88;9.10;;;;;;;11.96;78.33;100651.22;5052814;28;20108;-79
2022/04/17 04:09:29;;;;;;;19.30;9.75;;;;;;;11.99;78.06;100656.34;5054456;28;20025;-79
2022/04/17 04:11:55;;;;;;;16.55;9.15;;;;;;;11.94;77.60;100652.34;5054963;28;20040;-78
2022/04/17 04:14:20;;;;;;;18.42;9.48;;;;;;;11.95;78.04;100663.00;5052009;28;20025;-77
2022/04/17 04:16:47;;;;;;;19.83;8.82;;;;;;;11.82;77.54;100662.34;5052704;28;20052;-78
2022/04/17 04:19:13;;;;;;;15.50;9.50;;;;;;;11.82;77.93;100666.88;5051561;28;20136;-77
2022/04/17 04:21:49;;;;;;;21.75;8.80;;;;;;;11.80;77.96;100676.94;5034941;28;20033;-78
2022/04/17 04:24:15;;;;;;;24.63;10.52;;;;;;;11.70;78.11;100676.00;5053355;28;20026;-78
2022/04/17 04:26:44;;;;;;;11.45;7.40;;;;;;;11.60;78.13;100673.19;5052919;28;20032;-76
2022/04/17 04:29:10;;;;;;;17.17;8.38;;;;;;;11.63;77.89;100680.16;5052550;28;20037;-76
2022/04/17 04:31:36;;;;;;;12.55;7.70;;;;;;;11.63;77.48;100681.03;5052246;28;20524;-76
2022/04/17 04:34:02;;;;;;;19.98;7.78;;;;;;;11.60;77.65;100700.13;5052599;28;20028;-78
2022/04/17 04:36:30;;;;;;;13.88;7.70;;;;;;;11.51;77.61;100670.44;5051791;28;20572;-77
2022/04/17 04:38:55;;;;;;;20.58;7.22;;;;;;;11.55;77.74;100682.66;5052305;28;20059;-77
2022/04/17 04:41:21;;;;;;;14.23;7.15;;;;;;;11.56;77.81;100703.25;5053080;28;20017;-76
2022/04/17 04:43:46;;;;;;;19.15;7.85;;;;;;;11.52;78.03;100689.16;5053024;28;20037;-78
2022/04/17 04:46:12;;;;;;;21.48;7.82;;;;;;;11.54;77.51;100692.56;5052248;28;20032;-78
2022/04/17 04:51:28;;;;;;;13.60;6.75;;;;;;;11.63;77.08;100702.56;5051499;28;20032;-77
2022/04/17 04:53:56;;;;;;;17.08;8.55;;;;;;;11.70;77.07;100706.50;5052426;28;20513;-78
2022/04/17 04:56:22;;;;;;;17.60;6.88;;;;;;;11.68;76.99;100708.41;5052660;28;20513;-77
2022/04/17 04:58:48;;;;;;;13.77;6.32;;;;;;;11.59;77.19;100701.13;5034503;28;20129;-79
2022/04/17 05:01:13;;;;;;;17.38;8.02;;;;;;;11.59;76.66;100703.81;5051785;28;20052;-78
2022/04/17 05:03:39;;;;;;;17.75;6.72;;;;;;;11.64;76.58;100703.44;5052282;28;20055;-78
2022/04/17 05:06:07;;;;;;;14.98;7.13;;;;;;;11.57;76.47;100700.41;5052523;28;20037;-77
2022/04/17 05:08:33;;;;;;;17.33;7.53;;;;;;;11.57;76.73;100703.09;5052074;28;20021;-77
2022/04/17 05:10:59;;;;;;;15.18;6.57;;;;;;;11.55;77.01;100705.06;5051896;28;20079;-77
2022/04/17 05:13:25;;;;;;;21.85;6.82;;;;;;;11.58;76.65;100710.19;5052041;28;20343;-79
2022/04/17 05:15:52;;;;;;;18.77;6.82;;;;;;;11.51;75.85;100713.53;5053060;28;20043;-78
2022/04/17 05:18:18;;;;;;;19.00;6.22;;;;;;;11.42;76.43;100709.78;5052768;28;20025;-77
2022/04/17 05:20:45;;;;;;;9.98;6.63;;;;;;;11.37;76.75;100712.00;5033691;28;20043;-77
2022/04/17 05:23:30;;;;;;;13.50;7.30;;;;;;;11.37;77.11;100722.78;5050712;28;20035;-77
2022/04/17 05:25:59;;;;;;;14.68;7.43;;;;;;;11.40;77.14;100727.91;5050999;28;20337;-77
2022/04/17 05:28:26;;;;;;;14.02;7.18;;;;;;;11.30;77.30;100722.41;5052458;28;20425;-81
2022/04/17 05:30:52;;;;;;;14.20;7.22;;;;;;;11.32;76.90;100716.88;5051834;28;20552;-78
2022/04/17 05:33:21;;;;;;;10.18;7.15;;;;;;;11.28;76.87;100723.53;5034561;28;20065;-78
2022/04/17 05:35:47;;;;;;;10.77;6.25;;;;;;;11.17;76.75;100716.34;5052480;28;20051;-77
2022/04/17 05:38:13;;;;;;;14.68;6.53;;;;;;;11.13;76.75;100708.66;5052049;28;20036;-78
2022/04/17 05:40:41;;;;;;;24.17;8.05;;;;;;;11.15;76.96;100718.31;5050607;28;20029;-77
2022/04/17 05:43:07;;;;;;;17.05;8.07;;;;;;;11.11;76.79;100700.69;5051777;28;20032;-76
2022/04/17 05:45:34;;;;;;;17.45;7.30;;;;;;;11.05;75.92;100714.66;5051930;28;20024;-79
2022/04/17 05:48:00;;;;;;;16.42;8.25;;;;;;;10.95;75.46;100713.69;5050669;28;20461;-77
2022/04/17 05:50:27;;;;;;;9.98;8.13;;;;;;;10.91;75.63;100699.66;5050259;28;20028;-78
2022/04/17 05:52:52;;;;;;;17.00;9.27;;;;;;;10.91;75.97;100709.56;5051887;28;20032;-77
2022/04/17 05:55:19;;;;;;;11.75;8.05;;;;;;;10.84;75.72;100703.81;5050973;28;20494;-76
2022/04/17 05:57:44;;;;;;;12.30;7.85;;;;;;;10.85;76.03;100705.53;5033553;28;20033;-76
2022/04/17 06:00:11;;;;;;;17.63;10.57;;;;;;;10.79;75.88;100697.09;5053626;28;20032;-78
2022/04/17 06:02:38;;;;;;;10.07;7.68;;;;;;;10.76;75.33;100694.66;5040280;28;20037;-78
2022/04/17 06:05:05;;;;;;;14.68;8.60;;;;;;;10.66;75.26;100691.84;5053754;28;20112;-77
2022/04/17 06:07:32;;;;;;;14.60;7.03;;;;;;;10.64;75.34;100688.41;5057527;28;20098;-77
2022/04/17 06:10:06;;;;;;;11.45;7.28;;;;;;;10.61;75.35;100696.72;5058614;28;20055;-76
2022/04/17 06:12:32;;;;;;;23.70;7.78;;;;;;;10.59;75.99;100714.81;5051715;28;20025;-77
2022/04/17 06:14:57;;;;;;;12.25;7.95;;;;;;;10.52;76.11;100710.91;5054947;28;20457;-77
2022/04/17 06:17:23;;;;;;;14.98;8.65;;;;;;;10.53;76.68;100707.25;5055998;28;20028;-76
2022/04/17 06:19:49;;;;;;;8.30;7.40;;;;;;;10.48;76.52;100717.53;5055433;28;20033;-77
2022/04/17 06:22:15;;;;;;;17.40;8.82;;;;;;;10.45;76.51;100707.03;5056362;28;20039;-77
2022/04/17 06:24:41;;;;;;;15.10;8.13;;;;;;;10.41;77.12;100710.91;5055176;28;20029;-76
2022/04/17 06:27:07;;;;;;;12.25;8.93;;;;;;;10.41;76.80;100710.91;5054046;28;20029;-77
2022/04/17 06:29:35;;;;;;;24.98;12.88;;;;;;;10.35;76.56;100712.25;5055119;28;20029;-78
2022/04/17 06:32:02;;;;;;;15.48;8.70;;;;;;;10.25;76.41;100696.97;5052658;28;20053;-77
2022/04/17 06:34:28;;;;;;;19.55;8.70;;;;;;;10.21;76.84;100698.22;5053058;28;20467;-76
2022/04/17 06:36:53;;;;;;;12.27;8.95;;;;;;;10.19;77.54;100702.81;5054072;28;20112;-75
2022/04/17 06:39:20;;;;;;;15.57;10.23;;;;;;;10.19;77.24;100711.75;5054220;28;20131;-78
2022/04/17 06:41:45;;;;;;;13.95;8.88;;;;;;;10.28;76.90;100707.47;5053013;28;20020;-77
2022/04/17 06:44:12;;;;;;;15.85;8.35;;;;;;;10.36;77.17;100732.81;5054316;28;20055;-76
2022/04/17 06:46:39;;;;;;;22.77;7.07;;;;;;;10.41;75.91;100737.81;5052791;28;20076;-76
2022/04/17 06:49:07;;;;;;;23.58;7.53;;;;;;;10.42;75.10;100744.91;5036725;28;20033;-84
2022/04/17 06:51:32;;;;;;;14.65;6.60;;;;;;;10.38;75.02;100746.13;5037084;28;20041;-77
2022/04/17 06:53:58;;;;;;;18.95;6.43;;;;;;;10.35;75.02;100759.78;5054622;28;20094;-77
2022/04/17 06:56:24;;;;;;;9.57;6.10;;;;;;;10.39;74.66;100774.72;5054656;28;20043;-79
2022/04/17 06:58:49;;;;;;;13.85;6.82;;;;;;;10.38;74.32;100798.06;5054031;28;20826;-77
2022/04/17 07:01:15;;;;;;;16.08;7.32;;;;;;;10.32;74.39;100803.03;5036173;28;20490;-77
2022/04/17 07:03:41;;;;;;;16.50;7.65;;;;;;;10.32;74.14;100814.66;5054327;28;20028;-79
2022/04/17 07:06:07;;;;;;;13.25;7.55;;;;;;;10.26;74.38;100825.88;5055737;28;20047;-77
2022/04/17 07:08:33;;;;;;;13.50;6.22;;;;;;;10.33;74.90;100834.34;5052782;28;20605;-77
2022/04/17 07:11:00;;;;;;;11.95;7.18;;;;;;;10.32;75.11;100829.94;5052554;28;20406;-78
2022/04/17 07:13:26;;;;;;;9.18;6.65;;;;;;;10.34;75.64;100830.66;5053393;28;20079;-77
2022/04/17 07:15:51;;;;;;;11.82;6.47;;;;;;;10.34;75.77;100825.28;5051852;28;20052;-79
2022/04/17 07:18:18;;;;;;;11.80;6.68;;;;;;;10.37;76.14;100843.88;5053793;28;20119;-77
2022/04/17 07:20:44;;;;;;;9.55;6.65;;;;;;;10.37;76.51;100855.47;5053597;28;20032;-77
2022/04/17 07:23:11;;;;;;;12.23;6.22;;;;;;;10.40;76.72;100867.00;5052238;28;20032;-77
2022/04/17 07:25:37;;;;;;;8.65;6.03;;;;;;;10.42;76.31;100871.28;5051914;28;20403;-77
2022/04/17 07:28:04;;;;;;;10.98;6.20;;;;;;;10.36;77.38;100874.44;5035556;28;20039;-77
2022/04/17 07:30:33;;;;;;;7.35;6.43;;;;;;;10.34;76.82;100865.59;5051855;28;20048;-77
2022/04/17 07:33:01;;;;;;;13.57;6.38;;;;;;;10.27;76.58;100881.34;5053343;28;20491;-79
2022/04/17 07:35:28;;;;;;;11.48;8.48;;;;;;;10.08;76.81;100874.78;5051732;28;20032;-77
2022/04/17 07:37:57;;;;;;;10.57;6.50;;;;;;;10.04;77.14;100881.34;5052007;28;20033;-77
2022/04/17 07:40:26;;;;;;;11.93;7.50;;;;;;;9.95;77.40;100874.84;5051596;28;20569;-76
2022/04/17 07:42:55;;;;;;;14.32;7.85;;;;;;;9.86;79.19;100875.53;5053185;28;20027;-78
2022/04/17 07:45:21;;;;;;;9.85;6.18;;;;;;;9.88;78.29;100887.00;5051962;28;20491;-79
2022/04/17 07:47:49;;;;;;;6.90;5.05;;;;;;;9.76;78.29;100883.41;5055263;28;20112;-77
2022/04/17 07:50:18;;;;;;;9.20;6.05;;;;;;;9.74;79.12;100901.47;5053468;28;20053;-77
2022/04/17 07:52:46;;;;;;;8.90;5.10;;;;;;;9.69;79.44;100917.03;5051267;28;20123;-77
2022/04/17 07:55:14;;;;;;;14.60;8.30;;;;;;;9.71;79.83;100919.63;5052060;28;20033;-77
2022/04/17 08:00:27;;;;;;;8.50;5.47;;;;;;;9.63;79.76;100922.88;5053983;28;20123;-78
2022/04/17 08:03:10;;;;;;;9.77;5.10;;;;;;;9.59;78.30;100920.53;5051635;28;20504;-78
2022/04/17 08:05:49;;;;;;;11.88;5.65;;;;;;;9.57;78.86;100925.16;5051759;28;20036;-77
2022/04/17 08:08:15;;;;;;;12.05;6.40;;;;;;;9.42;79.45;100920.91;5051163;28;20043;-79
2022/04/17 08:10:43;;;;;;;11.60;6.72;;;;;;;9.28;79.91;100916.50;5052550;28;20058;-79
2022/04/17 08:13:09;;;;;;;11.50;7.10;;;;;;;9.28;80.55;100905.78;5050641;28;20021;-77
2022/04/17 08:15:35;;;;;;;9.70;7.38;;;;;;;9.24;81.44;100901.56;5050913;28;20029;-76
2022/04/17 08:18:00;;;;;;;12.68;7.53;;;;;;;9.17;82.20;100894.97;5052376;28;20029;-76
2022/04/17 08:20:26;;;;;;;7.82;5.72;;;;;;;8.96;81.60;100889.25;5050814;28;20029;-77
2022/04/17 08:22:52;;;;;;;11.93;6.78;;;;;;;9.01;82.36;100887.13;5050864;28;20597;-77
2022/04/17 08:25:17;;;;;;;8.27;5.80;;;;;;;9.02;82.75;100888.00;5050105;28;20044;-76
2022/04/17 08:27:46;;;;;;;12.98;6.20;;;;;;;8.96;82.70;100861.59;5051945;28;20035;-76
2022/04/17 08:30:12;;;;;;;17.98;7.88;;;;;;;8.95;81.67;100862.56;5050322;28;20112;-76
2022/04/17 08:32:38;;;;;;;12.32;6.60;;;;;;;8.94;82.63;100858.16;5049216;28;20120;-76
2022/04/17 08:35:05;;;;;;;8.60;6.28;;;;;;;9.01;82.61;100835.31;5051815;28;20512;-76
2022/04/17 08:37:30;;;;;;;7.25;5.35;;;;;;;9.03;82.57;100801.16;5049619;28;20509;-76
2022/04/17 08:39:56;;;;;;;13.10;8.10;;;;;;;9.00;83.04;100790.66;5051422;28;20029;-76
2022/04/17 08:42:23;;;;;;;8.73;6.55;;;;;;;9.21;83.92;100781.03;5051687;28;20032;-76
2022/04/17 08:44:51;;;;;;;8.05;5.18;;;;;;;9.22;83.08;100785.44;5051782;28;20025;-77
2022/04/17 08:47:16;;;;;;;7.50;5.65;;;;;;;9.17;81.53;100774.22;5050458;28;20025;-77
2022/04/17 08:49:42;;;;;;;7.07;5.70;;;;;;;9.18;80.65;100755.28;5017020;28;20449;-77
2022/04/17 08:52:15;;;;;;;7.20;6.03;;;;;;;9.08;80.88;100742.69;5051240;28;20025;-77
2022/04/17 08:54:42;;;;;;;8.98;5.55;;;;;;;9.11;82.39;100731.72;5051411;28;20028;-77
2022/04/17 08:57:08;;;;;;;11.25;7.50;;;;;;;9.11;81.59;100739.78;5051416;28;20044;-77
2022/04/17 08:59:34;;;;;;;14.63;6.50;;;;;;;9.18;80.72;100754.44;5033773;28;20055;-76
2022/04/17 09:02:18;;;;;;;9.35;6.50;;;;;;;9.08;80.17;100764.16;5049647;28;20029;-77
2022/04/17 09:04:53;;;;;;;12.23;6.50;;;;;;;9.12;81.33;100792.44;5050911;28;20555;-78
2022/04/17 09:07:19;;;;;;;9.90;6.68;;;;;;;8.97;80.72;100778.31;5049896;28;20029;-76
2022/04/17 09:09:52;;;;;;;11.00;6.53;;;;;;;9.01;81.54;100782.50;5050753;28;20174;-77
2022/04/17 09:12:26;;;;;;;9.57;7.60;;;;;;;9.03;82.29;100772.50;5049831;28;20094;-76
2022/04/17 09:14:55;;;;;;;11.75;8.63;;;;;;;8.98;81.51;100757.72;5049663;28;20112;-76
2022/04/17 09:17:30;;;;;;;11.93;7.93;;;;;;;9.06;81.72;100771.44;5051197;28;20475;-76
2022/04/17 09:19:56;;;;;;;10.48;7.63;;;;;;;9.26;81.78;100776.22;5049477;28;20116;-77
2022/04/17 09:22:23;;;;;;;7.93;5.65;;;;;;;9.37;80.58;100765.53;5050841;28;20092;-76
2022/04/17 09:24:50;;;;;;;8.55;5.68;;;;;;;9.34;78.86;100768.44;5050911;28;20112;-76
2022/04/17 09:27:16;;;;;;;8.48;5.57;;;;;;;9.33;79.43;100763.22;5051081;28;20113;-76
2022/04/17 09:29:42;;;;;;;5.68;4.25;;;;;;;9.36;79.00;100757.59;5051091;28;20029;-77
2022/04/17 09:32:12;;;;;;;7.25;5.18;;;;;;;9.49;79.12;100756.56;5050421;28;20525;-76
2022/04/17 09:34:50;;;;;;;7.70;5.38;;;;;;;9.53;79.39;100738.41;5049647;28;20495;-76
2022/04/17 09:37:21;;;;;;;8.55;4.55;;;;;;;9.56;77.97;100754.28;5053560;28;20057;-79
2022/04/17 09:39:48;;;;;;;4.72;4.18;;;;;;;9.44;78.10;100753.38;5058169;28;20029;-77
2022/04/17 09:42:20;;;;;;;6.07;4.38;;;;;;;9.40;78.04;100742.97;5050957;28;20062;-77
2022/04/17 09:44:47;;;;;;;6.22;4.15;;;;;;;9.38;78.23;100729.69;5051152;28;20506;-76
2022/04/17 09:47:27;;;;;;;7.60;4.88;;;;;;;9.36;78.54;100720.03;5049738;28;20094;-77
2022/04/17 09:50:03;;;;;;;6.50;4.70;;;;;;;9.36;79.01;100738.81;5054956;28;20509;-77
2022/04/17 09:52:34;;;;;;;4.93;4.28;;;;;;;9.35;78.84;100731.72;5054507;28;20115;-79
2022/04/17 09:55:04;;;;;;;4.28;3.80;;;;;;;9.38;78.27;100743.09;5056786;28;20117;-77
2022/04/17 09:57:34;;;;;;;8.30;5.93;;;;;;;9.42;78.09;100733.00;5054681;28;20047;-76
2022/04/17 10:00:16;;;;;;;7.55;3.45;;;;;;;9.53;78.04;100728.53;5053513;28;20078;-77
2022/04/17 10:02:44;;;;;;;4.80;4.13;;;;;;;9.49;76.67;100735.09;5053563;28;20032;-77
2022/04/17 10:05:11;;;;;;;14.93;5.20;;;;;;;9.50;77.31;100720.69;5054979;28;20083;-78
2022/04/17 10:07:39;;;;;;;6.93;4.63;;;;;;;9.65;77.78;100732.97;5054482;28;20064;-77
2022/04/17 10:10:07;;;;;;;4.70;3.97;;;;;;;9.63;77.21;100713.41;5054423;28;20476;-78
2022/04/17 10:12:34;;;;;;;4.15;3.08;;;;;;;9.71;76.71;100711.00;5054600;28;20029;-78
2022/04/17 10:15:06;;;;;;;4.30;3.38;;;;;;;9.56;76.16;100712.19;5053181;28;20033;-76
2022/04/17 10:17:36;;;;;;;4.05;3.60;;;;;;;9.55;77.06;100718.50;5053673;28;20055;-77
2022/04/17 10:20:08;;;;;;;7.88;4.95;;;;;;;9.54;77.50;100713.28;5053876;28;20387;-77
2022/04/17 10:22:36;;;;;;;7.25;3.60;;;;;;;9.44;77.86;100709.56;5052317;28;20028;-77
2022/04/17 10:25:06;;;;;;;6.25;3.95;;;;;;;9.24;77.23;100703.00;5054496;28;20029;-78
2022/04/17 10:27:46;;;;;;;5.43;3.70;;;;;;;9.20;77.71;100701.53;5053956;28;20564;-77
2022/04/17 10:30:18;;;;;;;12.15;3.95;;;;;;;9.15;77.79;100696.50;5054313;28;20058;-78
2022/04/17 10:32:51;;;;;;;7.93;4.10;;;;;;;9.13;79.22;100700.25;5052966;28;20049;-79
2022/04/17 10:35:50;;;;;;;5.10;3.97;;;;;;;9.07;79.48;100687.31;5054382;28;20658;-77
2022/04/17 10:38:59;;;;;;;8.48;6.10;;;;;;;9.09;78.76;100685.34;5054359;28;20033;-77
2022/04/17 10:41:26;;;;;;;3.80;3.38;;;;;;;9.02;78.48;100681.44;5054101;28;20032;-79
2022/04/17 10:43:51;;;;;;;5.00;4.05;;;;;;;9.04;79.48;100677.66;5052846;28;20487;-78
2022/04/17 10:46:19;;;;;;;6.68;3.22;;;;;;;9.07;80.00;100661.34;5054100;28;20036;-78
2022/04/17 10:48:48;;;;;;;6.55;3.92;;;;;;;9.11;79.87;100646.69;5055591;28;20060;-78
2022/04/17 10:51:21;;;;;;;5.82;4.20;;;;;;;9.15;78.52;100668.78;5054153;28;20053;-77
2022/04/17 10:53:56;;;;;;;6.22;3.70;;;;;;;9.17;78.47;100666.88;5052737;28;20115;-79
2022/04/17 10:56:22;;;;;;;4.97;4.00;;;;;;;9.12;78.57;100653.78;5054723;28;20021;-77
2022/04/17 10:58:56;;;;;;;5.55;3.90;;;;;;;8.93;78.05;100668.69;5052117;28;20039;-78
2022/04/17 11:01:43;;;;;;;5.60;3.85;;;;;;;8.97;78.44;100679.06;5053452;28;20032;-77
2022/04/17 11:04:28;;;;;;;8.05;5.07;;;;;;;8.92;79.65;100673.22;5054609;28;20069;-80
2022/04/17 11:07:14;;;;;;;6.47;4.53;;;;;;;9.02;79.16;100665.34;5053718;28;20033;-77
2022/04/17 11:09:43;;;;;;;3.40;2.97;;;;;;;8.94;79.00;100663.22;5053708;28;20029;-78
2022/04/17 11:12:20;;;;;;;6.07;3.72;;;;;;;8.93;78.49;100663.34;5057325;28;20090;-79
2022/04/17 11:15:03;;;;;;;5.95;3.40;;;;;;;8.91;79.12;100670.63;5054664;28;20163;-77
2022/04/17 11:17:32;;;;;;;3.67;3.13;;;;;;;8.90;79.68;100674.28;5054952;28;20025;-78
2022/04/17 11:20:03;;;;;;;2.97;2.67;;;;;;;8.88;79.32;100673.53;5053691;28;20082;-77
2022/04/17 11:22:34;;;;;;;3.85;3.33;;;;;;;8.92;80.03;100675.88;5053900;28;20024;-77
2022/04/17 11:25:02;;;;;;;4.57;3.70;;;;;;;8.97;79.81;100681.75;5052306;28;20477;-78
2022/04/17 11:27:46;;;;;;;6.35;3.78;;;;;;;9.01;79.82;100693.97;5053621;28;20029;-79
2022/04/17 11:30:14;;;;;;;6.50;4.22;;;;;;;9.01;78.86;100709.22;5058895;28;20534;-77
2022/04/17 11:32:40;;;;;;;5.70;3.85;;;;;;;8.96;78.38;100706.03;5052903;28;20044;-77
2022/04/17 11:35:14;;;;;;;3.60;3.10;;;;;;;8.95;78.79;100707.00;5051876;28;20032;-76